Flight Track Log - Related Links

Times and Time Zones

All times are in EDT time to prevent confusion due to time zone crossing. See the BLS501 flight status page for this flight to view local times or setup timezone preferences in your user account.

Time Position Orientation Groundspeed Altitude Reporting Facility
EDT Latitude Longitude Course Direction KTS MPH feet Rate Location/Type
Fri 06:01:56 PM 46.6333 -80.7667 360° North 130 150 2,100  Level Toronto Center
Fri 06:02:56 PM 46.6833 -80.7667 335° Northwest 170 196 4,000 1,850 Climbing Toronto Center
Fri 06:03:56 PM 46.7333 -80.8000 347° North 180 207 5,800 1,850 Climbing Toronto Center
Fri 06:04:56 PM 46.7833 -80.8167 347° North 190 219 7,700 1,700 Climbing Toronto Center
Fri 06:05:56 PM 46.8333 -80.8333 347° North 180 207 9,200 1,400 Climbing Toronto Center
Fri 06:06:56 PM 46.8833 -80.8500 336° Northwest 190 219 10,500 1,200 Climbing Toronto Center
Fri 06:07:56 PM 46.9333 -80.8833 360° North 190 219 11,600 700 Climbing Toronto Center
Fri 06:08:56 PM 47.0000 -80.8833 350° North 210 242 11,900 250 Climbing Toronto Center
Fri 06:09:56 PM 47.0667 -80.9000 336° Northwest 230 265 12,100  Climbing Toronto Center
Fri 06:10:56 PM 47.1167 -80.9333 350° North 250 288 11,900 -200 Descending Toronto Center
Fri 06:11:56 PM 47.1833 -80.9500 341° North 250 288 11,700 -50 Descending Toronto Center
Fri 06:12:56 PM 47.2500 -80.9833 350° North 250 288 11,800 50 Climbing Toronto Center
Fri 06:13:56 PM 47.3167 -81.0000 350° North 250 288 11,800 50 Level Toronto Center
Fri 06:14:56 PM 47.3833 -81.0167 350° North 250 288 11,900 50 Climbing Toronto Center
Fri 06:15:56 PM 47.4500 -81.0333 345° North 250 288 11,900 -50 Level Toronto Center
Fri 06:16:56 PM 47.5333 -81.0667 360° North 250 288 11,800  Descending Toronto Center
Fri 06:17:56 PM 47.6000 -81.0667 350° North 250 288 11,900  Climbing Toronto Center
Fri 06:18:56 PM 47.6667 -81.0833 341° North 250 288 11,800 -50 Descending Toronto Center
Fri 06:19:56 PM 47.7333 -81.1167 341° North 250 288 11,800 -50 Level Toronto Center
Fri 06:20:56 PM 47.8000 -81.1500 350° North 250 288 11,700 50 Descending Toronto Center
Fri 06:21:56 PM 47.8667 -81.1667 360° North 250 288 11,900 50 Climbing Toronto Center
Fri 06:22:56 PM 47.9333 -81.1667 345° North 250 288 11,800 -400 Descending Toronto Center
Fri 06:23:56 PM 48.0167 -81.2000 345° North 260 299 11,100 -700 Descending Toronto Center

Login

Don't have an account? Register now (free) for customized features, flight alerts, and more!